Time;durP1;ratioP1;P1;durP2;ratioP2;P2;SDS_P1;SDS_P2;PMS_P1;PMS_P2;Temp;Humidity;BMP_temperature;BMP_pressure;BME280_temperature;BME280_humidity;BME280_pressure;Samples;Min_cycle;Max_cycle;Signal;HPM_P1;HPM_P2
2022/10/06 00:00:53;;;;;;;5.53;4.00;;;12.90;99.90;;;;;;5112457;28;20211;-73
2022/10/06 00:03:22;;;;;;;7.40;5.10;;;12.80;99.90;;;;;;5113659;28;20297;-73
2022/10/06 00:05:51;;;;;;;6.47;4.70;;;12.80;99.90;;;;;;5113558;28;20212;-72
2022/10/06 00:08:19;;;;;;;7.43;4.20;;;12.80;99.90;;;;;;5112948;28;20192;-73
2022/10/06 00:10:45;;;;;;;10.13;5.07;;;12.70;99.90;;;;;;5109085;28;20200;-72
2022/10/06 00:13:12;;;;;;;7.77;4.60;;;12.70;99.90;;;;;;5105581;28;20204;-73
2022/10/06 00:15:39;;;;;;;11.03;6.13;;;12.70;99.90;;;;;;5113104;28;20545;-73
2022/10/06 00:18:06;;;;;;;5.30;4.30;;;12.70;99.90;;;;;;5114460;28;20206;-74
2022/10/06 00:20:33;;;;;;;7.10;5.17;;;12.70;99.90;;;;;;5111830;28;20226;-73
2022/10/06 00:22:59;;;;;;;6.17;4.50;;;12.70;99.90;;;;;;5113595;28;20594;-74
2022/10/06 00:25:28;;;;;;;9.10;4.97;;;12.70;99.90;;;;;;5113802;28;20738;-74
2022/10/06 00:27:55;;;;;;;7.63;4.63;;;12.70;99.90;;;;;;5113249;28;20678;-74
2022/10/06 00:30:23;;;;;;;5.47;4.80;;;12.70;99.90;;;;;;5112887;28;20207;-73
2022/10/06 00:32:52;;;;;;;7.70;4.33;;;12.70;99.90;;;;;;5112742;28;20204;-74
2022/10/06 00:35:19;;;;;;;8.03;4.83;;;12.60;99.90;;;;;;5112729;28;20211;-73
2022/10/06 00:37:46;;;;;;;5.87;4.40;;;12.60;99.90;;;;;;5114036;28;20199;-74
2022/10/06 00:40:13;;;;;;;7.57;4.97;;;12.60;99.90;;;;;;5111449;28;20599;-73
2022/10/06 00:42:53;;;;;;;7.20;4.90;;;12.60;99.90;;;;;;5111200;28;20203;-73
2022/10/06 00:45:26;;;;;;;7.97;4.70;;;12.60;99.90;;;;;;5110002;28;20199;-73
2022/10/06 00:47:54;;;;;;;6.27;4.70;;;12.60;99.90;;;;;;5101243;28;20192;-73
2022/10/06 00:50:21;;;;;;;6.47;4.60;;;12.60;99.90;;;;;;5112863;28;20265;-73
2022/10/06 00:52:48;;;;;;;7.50;4.97;;;12.60;99.90;;;;;;5113505;28;20208;-73
2022/10/06 00:55:15;;;;;;;6.77;4.53;;;12.60;99.90;;;;;;5111876;28;20215;-72
2022/10/06 00:57:43;;;;;;;7.80;4.37;;;12.60;99.90;;;;;;5113076;28;20207;-73
2022/10/06 01:00:12;;;;;;;7.27;4.27;;;12.60;99.90;;;;;;5099199;28;20239;-73
2022/10/06 01:02:43;;;;;;;5.00;4.10;;;12.60;99.90;;;;;;5106123;28;20556;-73
2022/10/06 01:05:16;;;;;;;7.73;4.40;;;12.60;99.90;;;;;;5112077;28;20553;-73
2022/10/06 01:07:42;;;;;;;5.00;4.10;;;12.50;99.90;;;;;;5112003;28;20192;-73
2022/10/06 01:10:09;;;;;;;5.13;4.20;;;12.60;99.90;;;;;;5112115;28;20278;-73
2022/10/06 01:12:36;;;;;;;5.93;4.60;;;12.50;99.90;;;;;;5111836;28;20634;-72
2022/10/06 01:15:04;;;;;;;8.87;4.50;;;12.50;99.90;;;;;;5113026;28;20208;-74
2022/10/06 01:17:37;;;;;;;9.23;4.33;;;12.60;99.90;;;;;;5113676;28;20207;-73
2022/10/06 01:20:07;;;;;;;7.17;4.83;;;12.60;99.90;;;;;;5106843;28;20251;-74
2022/10/06 01:22:37;;;;;;;7.63;4.50;;;12.50;99.90;;;;;;5112634;28;20335;-73
2022/10/06 01:25:05;;;;;;;4.97;4.20;;;12.60;99.90;;;;;;5111973;28;20235;-74
2022/10/06 01:27:36;;;;;;;6.83;4.00;;;12.50;99.90;;;;;;5112660;28;20204;-73
2022/10/06 01:30:04;;;;;;;4.50;3.70;;;12.50;99.90;;;;;;5113528;28;20497;-74
2022/10/06 01:32:34;;;;;;;6.17;4.77;;;12.50;99.90;;;;;;5113105;28;20242;-73
2022/10/06 01:35:01;;;;;;;5.87;4.20;;;12.50;99.90;;;;;;5110709;28;20227;-72
2022/10/06 01:37:28;;;;;;;7.57;4.20;;;12.50;99.90;;;;;;5113064;28;20210;-71
2022/10/06 01:39:56;;;;;;;6.57;4.67;;;12.50;99.90;;;;;;5112691;28;20220;-73
2022/10/06 01:42:23;;;;;;;7.73;4.27;;;12.50;99.90;;;;;;5112555;28;20557;-73
2022/10/06 01:44:50;;;;;;;5.43;4.00;;;12.50;99.90;;;;;;5112924;28;20212;-73
2022/10/06 01:47:17;;;;;;;5.03;3.83;;;12.50;99.90;;;;;;5113825;28;20239;-73
2022/10/06 01:49:43;;;;;;;5.20;4.27;;;12.50;99.90;;;;;;5115733;28;20663;-73
2022/10/06 01:52:10;;;;;;;6.03;3.83;;;12.50;99.90;;;;;;5109337;28;20208;-73
2022/10/06 01:54:37;;;;;;;5.73;3.53;;;12.60;99.90;;;;;;5112984;28;20210;-73
2022/10/06 01:57:07;;;;;;;5.47;3.57;;;12.50;99.90;;;;;;5111956;28;20204;-73
2022/10/06 01:59:34;;;;;;;7.27;3.90;;;12.50;99.90;;;;;;5112759;28;20215;-73
2022/10/06 02:02:01;;;;;;;6.70;3.57;;;12.50;99.90;;;;;;5110393;28;20234;-72
2022/10/06 02:04:27;;;;;;;5.97;3.53;;;12.60;99.90;;;;;;5111752;28;20208;-73
2022/10/06 02:06:55;;;;;;;8.00;3.63;;;12.50;99.90;;;;;;5112577;28;20289;-73
2022/10/06 02:09:22;;;;;;;6.03;3.50;;;12.60;99.90;;;;;;5110687;28;20203;-73
2022/10/06 02:11:49;;;;;;;5.00;3.63;;;12.60;99.90;;;;;;5111354;28;20210;-73
2022/10/06 02:14:17;;;;;;;4.87;3.67;;;12.50;99.90;;;;;;5111964;28;20208;-74
2022/10/06 02:16:44;;;;;;;4.30;3.53;;;12.50;99.90;;;;;;5111356;28;20204;-73
2022/10/06 02:19:11;;;;;;;8.33;3.80;;;12.60;99.90;;;;;;5112800;28;20219;-73
2022/10/06 02:21:38;;;;;;;6.47;3.57;;;12.50;99.90;;;;;;5114359;28;20215;-72
2022/10/06 02:24:05;;;;;;;8.17;4.03;;;12.50;99.90;;;;;;5114760;28;20732;-73
2022/10/06 02:26:32;;;;;;;5.17;3.70;;;12.50;99.90;;;;;;5111107;28;20207;-73
2022/10/06 02:28:59;;;;;;;5.53;3.53;;;12.50;99.90;;;;;;5115863;28;20215;-73
2022/10/06 02:31:27;;;;;;;5.57;3.80;;;12.50;99.90;;;;;;5116087;28;20210;-73
2022/10/06 02:33:53;;;;;;;4.07;3.60;;;12.50;99.90;;;;;;5116159;28;20245;-73
2022/10/06 02:36:21;;;;;;;4.60;3.80;;;12.50;99.90;;;;;;5114758;28;20602;-73
2022/10/06 02:38:48;;;;;;;4.47;4.07;;;12.50;99.90;;;;;;5114908;28;20204;-73
2022/10/06 02:41:15;;;;;;;4.23;3.33;;;12.50;99.90;;;;;;5113149;28;21516;-75
2022/10/06 02:43:42;;;;;;;5.67;3.43;;;12.50;99.90;;;;;;5105269;28;20208;-73
2022/10/06 02:46:12;;;;;;;6.13;4.20;;;12.50;99.90;;;;;;5114547;28;20204;-73
2022/10/06 02:48:41;;;;;;;6.17;3.80;;;12.50;99.90;;;;;;5114723;28;20559;-73
2022/10/06 02:51:10;;;;;;;4.80;3.67;;;12.50;99.90;;;;;;5112946;28;20212;-73
2022/10/06 02:53:37;;;;;;;3.90;3.43;;;12.50;99.90;;;;;;5114575;28;20297;-73
2022/10/06 02:56:06;;;;;;;7.90;3.73;;;12.50;99.90;;;;;;5114509;28;20210;-74
2022/10/06 02:58:33;;;;;;;6.10;3.90;;;12.50;99.90;;;;;;5113455;28;20208;-73
2022/10/06 03:01:04;;;;;;;4.23;3.70;;;12.50;99.90;;;;;;5113743;28;20258;-74
2022/10/06 03:03:33;;;;;;;9.07;4.27;;;12.50;99.90;;;;;;5113848;28;20223;-73
2022/10/06 03:06:03;;;;;;;5.30;3.63;;;12.50;99.90;;;;;;5114008;28;20249;-73
2022/10/06 03:08:29;;;;;;;5.13;4.17;;;12.50;99.90;;;;;;5114862;28;20565;-74
2022/10/06 03:11:00;;;;;;;6.17;3.80;;;12.50;99.90;;;;;;5114693;28;20602;-73
2022/10/06 03:13:28;;;;;;;5.83;3.70;;;12.50;99.90;;;;;;5114340;28;20235;-74
2022/10/06 03:15:55;;;;;;;5.03;3.33;;;12.40;99.90;;;;;;5113430;28;20257;-72
2022/10/06 03:18:22;;;;;;;7.70;4.07;;;12.40;99.90;;;;;;5106508;28;20212;-74
2022/10/06 03:20:49;;;;;;;4.20;3.80;;;12.50;99.90;;;;;;5111203;28;20694;-73
2022/10/06 03:23:17;;;;;;;7.37;4.00;;;12.50;99.90;;;;;;5112959;28;20224;-73
2022/10/06 03:25:44;;;;;;;6.77;3.83;;;12.50;99.90;;;;;;5112976;28;20236;-73
2022/10/06 03:28:10;;;;;;;7.13;3.83;;;12.50;99.90;;;;;;5114752;28;20214;-71
2022/10/06 03:30:37;;;;;;;5.77;3.50;;;12.50;99.90;;;;;;5113733;28;20215;-72
2022/10/06 03:33:04;;;;;;;4.40;3.60;;;12.50;99.90;;;;;;5114138;28;20208;-72
2022/10/06 03:35:30;;;;;;;5.90;3.60;;;12.50;99.90;;;;;;5111954;28;20200;-72
2022/10/06 03:37:59;;;;;;;5.20;3.53;;;12.50;99.90;;;;;;5111762;28;20211;-72
2022/10/06 03:40:27;;;;;;;10.00;4.07;;;12.50;99.90;;;;;;5113558;28;20219;-73
2022/10/06 03:42:54;;;;;;;6.63;3.63;;;12.50;99.90;;;;;;5114466;28;20211;-71
2022/10/06 03:45:20;;;;;;;3.87;3.43;;;12.50;99.90;;;;;;5112989;28;20583;-72
2022/10/06 03:47:47;;;;;;;3.90;3.50;;;12.40;99.90;;;;;;5113971;28;20570;-71
2022/10/06 03:50:14;;;;;;;6.07;3.73;;;12.50;99.90;;;;;;5111023;28;20580;-73
2022/10/06 03:52:43;;;;;;;5.50;3.90;;;12.50;99.90;;;;;;5109506;28;20809;-72
2022/10/06 03:55:09;;;;;;;7.20;3.80;;;12.60;99.90;;;;;;5112819;28;20224;-73
2022/10/06 03:57:37;;;;;;;5.03;3.67;;;12.60;99.90;;;;;;5113583;28;20601;-73
2022/10/06 04:00:05;;;;;;;7.97;3.80;;;12.60;99.90;;;;;;5113271;28;20751;-72
2022/10/06 04:02:32;;;;;;;3.67;3.17;;;12.60;99.90;;;;;;5113553;28;20204;-71
2022/10/06 04:04:59;;;;;;;7.50;3.93;;;12.60;99.90;;;;;;5110155;28;20216;-73
2022/10/06 04:07:26;;;;;;;5.80;3.63;;;12.60;99.90;;;;;;5111910;28;20212;-71
2022/10/06 04:09:53;;;;;;;5.00;3.60;;;12.60;99.90;;;;;;5112193;28;20220;-71
2022/10/06 04:12:19;;;;;;;6.00;3.40;;;12.60;99.90;;;;;;5112477;28;20212;-72
2022/10/06 04:14:47;;;;;;;6.20;3.80;;;12.70;99.90;;;;;;5111496;28;20204;-71
2022/10/06 04:17:14;;;;;;;4.60;3.60;;;12.70;99.90;;;;;;5106163;28;20207;-72
2022/10/06 04:19:41;;;;;;;6.53;3.83;;;12.60;99.90;;;;;;5111281;28;20250;-72
2022/10/06 04:22:08;;;;;;;7.17;3.93;;;12.70;99.90;;;;;;5112095;28;20669;-72
2022/10/06 04:24:35;;;;;;;6.10;3.77;;;12.70;99.90;;;;;;5110511;28;20231;-72
2022/10/06 04:29:42;;;;;;;6.97;3.30;;;12.70;99.90;;;;;;5098654;28;20234;-72
2022/10/06 04:32:10;;;;;;;7.87;3.97;;;12.70;99.90;;;;;;5112122;28;20204;-72
2022/10/06 04:34:37;;;;;;;6.67;3.57;;;12.70;99.90;;;;;;5110444;28;20208;-71
2022/10/06 04:37:03;;;;;;;7.00;3.50;;;12.70;99.90;;;;;;5109949;28;20215;-72
2022/10/06 04:39:30;;;;;;;7.23;4.43;;;12.70;99.90;;;;;;5110767;28;20211;-72
2022/10/06 04:41:57;;;;;;;6.67;3.47;;;12.70;99.90;;;;;;5111778;28;20204;-73
2022/10/06 04:44:24;;;;;;;5.47;3.63;;;12.70;99.90;;;;;;5110971;28;20560;-71
2022/10/06 04:46:50;;;;;;;4.37;3.83;;;12.80;99.90;;;;;;5111603;28;20203;-72
2022/10/06 04:49:18;;;;;;;4.57;3.77;;;12.80;99.90;;;;;;5113368;28;20211;-72
2022/10/06 04:51:45;;;;;;;5.77;3.40;;;12.80;99.90;;;;;;5111003;28;20211;-72
2022/10/06 04:54:13;;;;;;;4.03;3.60;;;12.90;99.90;;;;;;5111060;28;20212;-71
2022/10/06 04:56:39;;;;;;;5.43;3.47;;;12.90;99.90;;;;;;5103109;28;20208;-73
2022/10/06 04:59:06;;;;;;;6.50;3.87;;;12.80;99.90;;;;;;5102996;28;20208;-71
2022/10/06 05:01:35;;;;;;;6.53;4.10;;;12.90;99.90;;;;;;5108077;28;20231;-70
2022/10/06 05:04:03;;;;;;;4.80;3.20;;;12.90;99.90;;;;;;5109913;28;20210;-71
2022/10/06 05:06:32;;;;;;;5.40;4.17;;;12.90;99.90;;;;;;5111790;28;20204;-72
2022/10/06 05:09:01;;;;;;;7.03;3.77;;;13.00;99.90;;;;;;5110487;28;20223;-73
2022/10/06 05:11:28;;;;;;;6.67;4.83;;;13.00;99.90;;;;;;5107090;28;20206;-72
2022/10/06 05:13:56;;;;;;;7.50;4.43;;;13.00;99.90;;;;;;5104497;28;20196;-74
2022/10/06 05:16:25;;;;;;;5.87;3.90;;;13.00;99.90;;;;;;5108403;28;20196;-72
2022/10/06 05:18:52;;;;;;;5.10;3.70;;;13.00;99.90;;;;;;5109614;28;20200;-72
2022/10/06 05:21:20;;;;;;;4.10;3.70;;;13.10;99.90;;;;;;5108597;28;20227;-72
2022/10/06 05:23:49;;;;;;;7.07;4.57;;;13.10;99.90;;;;;;5110495;28;20639;-70
2022/10/06 05:26:19;;;;;;;5.80;3.83;;;13.10;99.90;;;;;;5111390;28;20247;-70
2022/10/06 05:28:46;;;;;;;6.47;3.63;;;13.20;99.90;;;;;;5109577;28;20200;-69
2022/10/06 05:31:17;;;;;;;6.57;4.33;;;13.30;99.90;;;;;;5109134;28;20608;-72
2022/10/06 05:33:44;;;;;;;4.20;3.53;;;13.30;99.90;;;;;;5104651;28;20210;-71
2022/10/06 05:36:12;;;;;;;5.90;3.37;;;13.40;99.90;;;;;;5109352;28;20204;-69
2022/10/06 05:38:40;;;;;;;9.63;4.23;;;13.40;99.90;;;;;;5109109;28;20222;-71
2022/10/06 05:41:11;;;;;;;5.10;3.57;;;13.50;99.90;;;;;;5109408;28;20565;-73
2022/10/06 05:43:38;;;;;;;6.40;4.07;;;13.50;99.90;;;;;;5109612;28;20196;-73
2022/10/06 05:46:07;;;;;;;5.43;3.63;;;13.50;99.90;;;;;;5106248;28;20210;-69
2022/10/06 05:48:34;;;;;;;5.20;3.60;;;13.60;99.90;;;;;;5107779;28;20202;-71
2022/10/06 05:51:02;;;;;;;6.33;3.83;;;13.30;99.90;;;;;;5108981;28;20592;-71
2022/10/06 05:53:30;;;;;;;5.03;3.83;;;13.70;99.90;;;;;;5109596;28;20645;-69
2022/10/06 05:56:06;;;;;;;6.20;3.83;;;13.80;99.90;;;;;;5114390;28;20211;-70
2022/10/06 05:58:35;;;;;;;6.03;4.00;;;13.90;99.90;;;;;;5100814;28;20257;-70
2022/10/06 06:01:10;;;;;;;7.13;3.80;;;13.90;99.90;;;;;;5114139;28;20234;-70
2022/10/06 06:03:38;;;;;;;6.57;4.13;;;14.00;99.90;;;;;;5112676;28;20203;-72
2022/10/06 06:06:15;;;;;;;5.27;3.20;;;14.00;99.90;;;;;;5114175;28;20210;-70
2022/10/06 06:08:42;;;;;;;5.37;3.73;;;14.00;99.90;;;;;;5110381;28;20199;-71
2022/10/06 06:11:09;;;;;;;4.17;3.57;;;14.10;99.90;;;;;;5113905;28;20215;-70
2022/10/06 06:13:37;;;;;;;5.27;3.37;;;14.10;99.90;;;;;;5110437;28;20226;-70
2022/10/06 06:16:06;;;;;;;5.83;3.57;;;14.10;99.90;;;;;;5112855;28;20215;-71
2022/10/06 06:18:35;;;;;;;7.70;3.60;;;14.20;99.90;;;;;;5114052;28;20211;-71
2022/10/06 06:21:04;;;;;;;5.13;4.40;;;14.30;99.90;;;;;;5114473;28;20624;-71
2022/10/06 06:23:33;;;;;;;4.30;3.10;;;14.40;99.90;;;;;;5113096;28;20220;-71
2022/10/06 06:26:01;;;;;;;7.90;3.50;;;14.50;99.90;;;;;;5113974;28;20329;-72
2022/10/06 06:28:29;;;;;;;6.10;4.40;;;14.60;99.90;;;;;;5112530;28;20211;-72
2022/10/06 06:31:02;;;;;;;5.60;3.60;;;14.60;99.90;;;;;;5114039;28;20196;-71
2022/10/06 06:33:29;;;;;;;4.93;3.70;;;14.70;99.90;;;;;;5113189;28;20276;-70
2022/10/06 06:35:56;;;;;;;5.63;3.70;;;14.80;99.90;;;;;;5109791;28;20212;-69
2022/10/06 06:38:23;;;;;;;7.27;3.57;;;14.90;99.90;;;;;;5111604;28;20218;-72
2022/10/06 06:40:49;;;;;;;4.53;3.30;;;15.00;99.90;;;;;;5109569;28;20216;-73
2022/10/06 06:43:16;;;;;;;6.33;3.73;;;15.10;99.90;;;;;;5110642;28;20225;-70
2022/10/06 06:45:43;;;;;;;4.33;3.37;;;15.20;99.90;;;;;;5111467;28;20212;-70
2022/10/06 06:48:14;;;;;;;4.80;3.53;;;15.30;99.90;;;;;;5113027;28;20696;-69
2022/10/06 06:50:41;;;;;;;7.27;3.47;;;15.30;99.90;;;;;;5109789;28;20192;-73
2022/10/06 06:53:08;;;;;;;7.27;3.70;;;15.20;99.90;;;;;;5108223;28;20196;-71
2022/10/06 06:55:34;;;;;;;9.20;4.27;;;15.20;99.90;;;;;;5110555;28;20502;-72
2022/10/06 06:58:02;;;;;;;4.60;3.53;;;15.20;99.90;;;;;;5108533;28;20204;-70
2022/10/06 07:00:29;;;;;;;5.13;4.00;;;15.20;99.90;;;;;;5107329;28;20707;-71
2022/10/06 07:03:00;;;;;;;7.00;3.80;;;15.20;99.90;;;;;;5109006;28;20518;-70
2022/10/06 07:05:28;;;;;;;5.13;3.87;;;15.20;99.90;;;;;;5106630;28;20255;-70
2022/10/06 07:07:55;;;;;;;3.90;3.50;;;15.20;99.90;;;;;;5113534;28;20559;-72
2022/10/06 07:10:21;;;;;;;4.67;3.30;;;15.20;99.90;;;;;;5112020;28;20196;-70
2022/10/06 07:12:48;;;;;;;5.50;4.00;;;15.10;99.90;;;;;;5104438;28;20695;-71
2022/10/06 07:26:16;;;;;;;5.37;3.77;;;15.20;99.90;;;;;;5099968;28;20680;-69
2022/10/06 07:28:43;;;;;;;6.37;3.90;;;15.20;99.90;;;;;;5105643;28;20214;-69
2022/10/06 07:31:10;;;;;;;9.00;3.97;;;15.20;99.90;;;;;;5114825;27;20206;-69
2022/10/06 07:33:38;;;;;;;7.50;3.80;;;15.20;99.90;;;;;;5110253;28;20212;-69
2022/10/06 07:36:06;;;;;;;5.40;3.47;;;15.30;99.90;;;;;;5108240;28;20204;-69
2022/10/06 07:38:33;;;;;;;5.50;4.07;;;15.30;99.90;;;;;;5106619;28;20196;-69
2022/10/06 07:41:00;;;;;;;6.67;3.53;;;15.40;99.90;;;;;;5101506;27;20238;-72
2022/10/06 07:43:26;;;;;;;4.47;3.67;;;15.30;99.90;;;;;;5110598;28;20212;-69
2022/10/06 07:45:55;;;;;;;4.83;3.40;;;15.30;99.90;;;;;;5104987;28;20208;-76
2022/10/06 07:48:23;;;;;;;9.27;4.90;;;15.40;99.90;;;;;;5110124;28;20608;-69
2022/10/06 07:50:51;;;;;;;5.87;3.60;;;15.30;99.90;;;;;;5106242;28;20223;-69
2022/10/06 07:53:20;;;;;;;6.30;3.77;;;15.30;99.90;;;;;;5106388;28;20214;-73
2022/10/06 07:55:48;;;;;;;4.97;2.97;;;15.30;99.90;;;;;;5112196;27;20558;-72
2022/10/06 07:58:17;;;;;;;6.20;3.70;;;15.30;99.90;;;;;;5105275;27;20303;-71
2022/10/06 08:00:45;;;;;;;5.83;3.77;;;15.30;99.90;;;;;;5100693;28;20235;-71
2022/10/06 08:03:16;;;;;;;5.20;3.87;;;15.30;99.90;;;;;;5106134;28;20210;-71
2022/10/06 08:05:43;;;;;;;5.00;3.80;;;15.40;99.90;;;;;;5107077;28;20200;-70
2022/10/06 08:08:10;;;;;;;5.87;3.53;;;15.50;99.90;;;;;;5111388;28;20645;-72
2022/10/06 08:10:38;;;;;;;6.40;4.00;;;15.60;99.90;;;;;;5111744;28;20211;-71
2022/10/06 08:13:05;;;;;;;4.83;3.80;;;15.70;99.90;;;;;;5111368;28;20211;-72
2022/10/06 08:15:32;;;;;;;6.00;3.67;;;15.70;99.90;;;;;;5108614;28;20366;-71
2022/10/06 08:17:59;;;;;;;3.77;3.30;;;15.80;99.90;;;;;;5099876;28;20215;-71
2022/10/06 08:20:27;;;;;;;4.50;3.60;;;15.90;99.90;;;;;;5111219;28;20214;-71
2022/10/06 08:22:54;;;;;;;6.27;3.57;;;16.20;99.90;;;;;;5111548;28;20230;-71
2022/10/06 08:25:20;;;;;;;5.93;3.23;;;16.50;99.90;;;;;;5111237;28;20228;-71
2022/10/06 08:27:49;;;;;;;7.40;4.77;;;16.70;99.90;;;;;;5108607;28;20590;-71
2022/10/06 08:30:15;;;;;;;5.73;3.70;;;17.00;99.90;;;;;;5108172;28;20664;-71
2022/10/06 08:32:42;;;;;;;6.50;3.63;;;17.40;99.90;;;;;;5109425;28;20207;-71
2022/10/06 08:35:09;;;;;;;6.47;2.90;;;17.70;99.90;;;;;;5109487;28;20204;-71
2022/10/06 08:37:36;;;;;;;5.28;3.30;;;18.10;99.90;;;;;;5106684;28;20644;-72
2022/10/06 08:40:06;;;;;;;4.90;3.60;;;18.40;99.90;;;;;;5110224;28;20210;-74
2022/10/06 08:42:40;;;;;;;5.82;3.92;;;18.60;99.90;;;;;;5110023;28;20266;-71
2022/10/06 08:45:14;;;;;;;4.20;3.50;;;18.80;99.90;;;;;;5108250;28;20208;-72
2022/10/06 08:47:49;;;;;;;5.47;3.63;;;19.00;99.90;;;;;;5111118;28;20663;-71
2022/10/06 08:50:16;;;;;;;6.35;3.15;;;19.30;99.90;;;;;;5108636;28;20218;-71
2022/10/06 08:52:51;;;;;;;4.43;2.80;;;19.60;99.90;;;;;;5105244;28;20203;-71
2022/10/06 08:55:30;;;;;;;6.22;2.85;;;19.90;99.90;;;;;;5110018;28;20215;-71
2022/10/06 08:58:13;;;;;;;4.35;3.20;;;20.70;99.90;;;;;;5108805;28;20196;-73
2022/10/06 09:00:41;;;;;;;6.85;3.05;;;22.90;99.90;;;;;;5108947;28;20584;-70
2022/10/06 09:03:18;;;;;;;3.90;2.75;;;26.70;99.90;;;;;;5107500;28;20223;-71
2022/10/06 09:05:47;;;;;;;2.65;2.45;;;30.40;90.70;;;;;;5107412;28;20260;-71
2022/10/06 09:08:31;;;;;;;3.90;2.38;;;32.90;65.70;;;;;;5103762;28;20667;-71
2022/10/06 09:11:13;;;;;;;4.18;2.50;;;33.70;57.80;;;;;;5107402;28;20200;-72
2022/10/06 09:13:51;;;;;;;3.17;2.78;;;32.50;56.80;;;;;;5106667;28;20226;-69
2022/10/06 09:16:26;;;;;;;3.83;2.67;;;31.00;58.20;;;;;;5110669;28;20564;-71
2022/10/06 09:19:00;;;;;;;6.70;3.35;;;29.40;60.80;;;;;;5109519;28;20207;-72
2022/10/06 09:21:35;;;;;;;5.65;3.00;;;27.90;63.70;;;;;;5109775;28;20212;-70
2022/10/06 09:24:11;;;;;;;3.90;2.72;;;26.60;68.00;;;;;;5104320;28;20227;-70
2022/10/06 09:26:42;;;;;;;6.65;2.83;;;25.60;72.10;;;;;;5063873;28;20224;-71
2022/10/06 09:29:10;;;;;;;10.65;2.92;;;24.70;75.40;;;;;;5068811;28;20205;-71
2022/10/06 09:31:40;;;;;;;4.72;3.40;;;24.40;79.30;;;;;;5063761;28;20201;-70
2022/10/06 09:34:15;;;;;;;5.03;3.13;;;24.80;79.10;;;;;;5068066;28;20623;-70
2022/10/06 09:36:58;;;;;;;5.38;2.95;;;25.20;79.30;;;;;;5068733;28;20569;-70
2022/10/06 09:39:27;;;;;;;4.32;2.60;;;25.60;79.10;;;;;;5066088;28;20642;-69
2022/10/06 09:41:54;;;;;;;5.03;2.95;;;26.60;81.50;;;;;;5068810;28;20229;-70
2022/10/06 09:44:24;;;;;;;9.15;3.20;;;28.90;76.90;;;;;;5064672;28;20672;-70
2022/10/06 09:46:52;;;;;;;3.33;2.55;;;32.10;64.10;;;;;;5069309;28;20240;-70
2022/10/06 09:49:21;;;;;;;5.65;2.90;;;34.80;57.20;;;;;;5069306;28;20217;-72
2022/10/06 09:52:11;;;;;;;5.10;2.85;;;37.40;51.60;;;;;;5067811;28;20205;-70
2022/10/06 09:54:40;;;;;;;3.22;2.30;;;39.30;45.20;;;;;;5065724;28;20288;-70
2022/10/06 09:57:10;;;;;;;3.17;2.72;;;38.70;44.20;;;;;;5068620;28;20622;-71
2022/10/06 09:59:41;;;;;;;2.75;2.55;;;37.40;45.10;;;;;;5068976;28;20700;-70
2022/10/06 10:02:26;;;;;;;4.50;2.42;;;35.50;46.10;;;;;;5068580;28;20221;-70
2022/10/06 10:04:55;;;;;;;3.08;2.15;;;33.10;49.10;;;;;;5067859;28;20587;-71
2022/10/06 10:07:24;;;;;;;2.83;2.40;;;31.20;52.30;;;;;;5069046;28;20239;-71
2022/10/06 10:09:51;;;;;;;2.80;2.05;;;29.80;55.40;;;;;;5066956;28;20637;-71
2022/10/06 10:12:26;;;;;;;3.33;2.40;;;28.80;57.60;;;;;;5066849;28;20205;-71
2022/10/06 10:14:56;;;;;;;3.90;2.38;;;29.50;59.60;;;;;;5068310;28;20208;-70
2022/10/06 10:17:42;;;;;;;3.38;2.28;;;31.60;57.30;;;;;;5068926;28;20201;-71
2022/10/06 10:20:26;;;;;;;3.08;2.22;;;34.60;51.50;;;;;;5068513;28;20205;-71
2022/10/06 10:22:55;;;;;;;2.10;1.90;;;37.40;48.10;;;;;;5060671;28;20591;-70
2022/10/06 10:25:43;;;;;;;3.63;1.90;;;39.00;43.50;;;;;;5088497;28;20263;-71
2022/10/06 10:28:23;;;;;;;3.28;2.33;;;38.20;42.70;;;;;;5105122;28;20204;-72
2022/10/06 10:30:58;;;;;;;1.90;1.70;;;37.20;44.50;;;;;;5109356;28;20207;-72
2022/10/06 10:33:34;;;;;;;3.42;2.10;;;36.30;45.00;;;;;;5109373;28;20585;-70
2022/10/06 10:36:04;;;;;;;3.45;2.60;;;35.30;45.10;;;;;;5109109;28;20542;-71
2022/10/06 10:38:33;;;;;;;4.05;2.38;;;33.60;47.30;;;;;;5108345;28;20677;-70
2022/10/06 10:41:04;;;;;;;3.28;2.17;;;32.00;49.60;;;;;;5110782;28;20218;-70
2022/10/06 10:43:34;;;;;;;4.70;2.30;;;30.40;52.30;;;;;;5102966;28;20204;-73
2022/10/06 10:46:08;;;;;;;2.33;1.92;;;29.00;54.80;;;;;;5111325;28;20200;-71
2022/10/06 10:48:42;;;;;;;2.75;1.98;;;27.80;57.30;;;;;;5112458;28;20196;-71
2022/10/06 10:51:12;;;;;;;2.30;2.05;;;26.60;59.80;;;;;;5110374;28;20211;-72
2022/10/06 10:53:46;;;;;;;5.63;2.35;;;25.60;62.60;;;;;;5111949;28;20879;-71
2022/10/06 10:56:18;;;;;;;5.15;2.35;;;24.70;65.50;;;;;;5112880;28;20296;-72
2022/10/06 10:58:47;;;;;;;6.35;2.30;;;24.00;68.10;;;;;;5111736;28;20546;-71
2022/10/06 11:01:24;;;;;;;2.78;2.20;;;23.40;70.40;;;;;;5112374;28;20208;-72
2022/10/06 11:03:56;;;;;;;3.30;2.58;;;22.90;72.80;;;;;;5106836;28;20656;-71
2022/10/06 11:06:46;;;;;;;4.60;2.45;;;22.50;74.70;;;;;;5106773;28;20208;-71
2022/10/06 11:09:16;;;;;;;5.20;2.60;;;22.10;77.20;;;;;;5106639;28;20277;-71
2022/10/06 11:11:58;;;;;;;4.03;2.53;;;21.70;78.90;;;;;;5099227;28;20204;-72
2022/10/06 11:14:37;;;;;;;6.85;2.70;;;21.50;81.10;;;;;;5110776;28;20196;-71
2022/10/06 11:17:13;;;;;;;3.70;3.00;;;21.30;83.30;;;;;;5105101;28;20210;-72
2022/10/06 11:19:49;;;;;;;6.00;2.90;;;21.50;85.70;;;;;;5112501;28;20204;-72
2022/10/06 11:22:24;;;;;;;5.57;2.92;;;21.10;87.50;;;;;;5111962;28;20234;-71
2022/10/06 11:24:58;;;;;;;5.13;3.00;;;21.10;88.60;;;;;;5112095;28;20238;-71
2022/10/06 11:27:39;;;;;;;4.88;2.92;;;21.00;90.00;;;;;;5111981;28;20203;-72
2022/10/06 11:30:14;;;;;;;4.60;3.15;;;20.90;90.80;;;;;;5112483;28;20659;-71
2022/10/06 11:32:52;;;;;;;4.72;2.70;;;20.90;91.90;;;;;;5112171;28;20195;-71
2022/10/06 11:35:22;;;;;;;4.47;2.75;;;20.80;92.80;;;;;;5111401;28;20222;-71
2022/10/06 11:37:56;;;;;;;4.22;2.42;;;21.50;99.90;;;;;;5112140;28;20230;-71
2022/10/06 11:40:38;;;;;;;7.10;2.33;;;23.30;95.60;;;;;;5112128;28;20295;-71
2022/10/06 11:43:12;;;;;;;5.05;3.60;;;24.00;92.20;;;;;;5112081;28;20212;-72
2022/10/06 11:45:47;;;;;;;3.95;2.30;;;24.30;91.40;;;;;;5110672;28;20561;-71
2022/10/06 11:48:25;;;;;;;2.20;2.00;;;24.40;89.40;;;;;;5111689;28;20204;-72
2022/10/06 11:50:55;;;;;;;2.97;2.00;;;24.00;88.60;;;;;;5111645;28;20225;-72
2022/10/06 11:53:39;;;;;;;4.50;3.00;;;23.40;88.90;;;;;;5095969;28;20542;-71
2022/10/06 11:56:36;;;;;;;2.78;2.28;;;22.80;90.50;;;;;;5110211;28;20667;-70
2022/10/06 11:59:23;;;;;;;5.43;2.20;;;22.20;91.50;;;;;;5051445;28;20239;-71
2022/10/06 12:01:52;;;;;;;2.75;2.30;;;21.70;92.30;;;;;;5109131;28;20215;-70
2022/10/06 12:04:19;;;;;;;2.72;2.50;;;21.40;93.10;;;;;;5106247;28;20239;-71
2022/10/06 12:06:55;;;;;;;3.22;2.42;;;21.10;94.00;;;;;;5111864;28;20663;-70
2022/10/06 12:09:56;;;;;;;3.45;2.47;;;21.10;94.60;;;;;;5108860;28;20652;-71
2022/10/06 12:12:49;;;;;;;4.05;2.30;;;21.70;99.30;;;;;;5106306;28;20204;-70
2022/10/06 12:15:30;;;;;;;3.35;2.28;;;23.80;93.40;;;;;;5103220;28;20652;-70
2022/10/06 12:18:03;;;;;;;2.88;2.10;;;24.30;90.30;;;;;;5108439;28;20218;-71
2022/10/06 12:20:42;;;;;;;3.38;2.30;;;25.60;93.70;;;;;;5099257;28;20200;-70
2022/10/06 12:23:20;;;;;;;3.25;2.33;;;28.40;86.20;;;;;;5107764;28;20223;-69
2022/10/06 12:25:53;;;;;;;2.08;1.83;;;31.20;66.20;;;;;;5100261;28;20276;-70
2022/10/06 12:28:31;;;;;;;2.55;1.80;;;31.40;60.00;;;;;;5104375;28;20208;-69
2022/10/06 12:31:24;;;;;;;3.88;1.88;;;30.50;59.30;;;;;;5104901;28;20286;-69
2022/10/06 12:33:51;;;;;;;3.88;2.03;;;29.10;60.80;;;;;;5104881;28;20207;-70
2022/10/06 12:36:21;;;;;;;5.57;2.50;;;27.80;63.50;;;;;;5110650;28;20204;-69
2022/10/06 12:39:05;;;;;;;4.00;2.10;;;26.90;66.90;;;;;;5111037;28;20200;-69
2022/10/06 12:41:56;;;;;;;6.10;2.47;;;26.00;67.50;;;;;;5111040;28;20200;-69
2022/10/06 12:44:25;;;;;;;4.82;2.20;;;25.20;70.20;;;;;;5100561;28;20200;-69
2022/10/06 12:46:54;;;;;;;4.38;2.30;;;24.50;72.50;;;;;;5110711;28;20215;-70
2022/10/06 12:49:38;;;;;;;4.03;2.47;;;23.70;75.00;;;;;;5109950;28;20204;-69
2022/10/06 12:52:25;;;;;;;4.78;2.40;;;23.00;77.80;;;;;;5110878;28;20256;-69
2022/10/06 12:55:02;;;;;;;5.72;2.70;;;22.50;80.40;;;;;;5106151;28;20203;-69
2022/10/06 12:57:29;;;;;;;3.78;2.80;;;22.00;83.00;;;;;;5108650;28;20258;-69
2022/10/06 12:59:57;;;;;;;5.28;2.70;;;21.60;85.00;;;;;;5110344;28;20203;-70
2022/10/06 13:02:26;;;;;;;4.28;2.72;;;21.30;86.70;;;;;;5109909;28;20255;-70
2022/10/06 13:04:55;;;;;;;6.13;2.83;;;21.00;89.60;;;;;;5109823;28;20240;-69
2022/10/06 13:07:24;;;;;;;6.47;2.70;;;20.80;90.60;;;;;;5107637;28;20204;-71
2022/10/06 13:09:54;;;;;;;3.58;2.65;;;20.60;91.60;;;;;;5106085;28;20211;-70
2022/10/06 13:12:28;;;;;;;3.70;2.40;;;20.30;92.20;;;;;;5110232;28;20735;-69
2022/10/06 13:15:14;;;;;;;8.93;2.80;;;20.20;93.00;;;;;;5110091;28;20203;-69